Time;durP1;ratioP1;P1;durP2;ratioP2;P2;SDS_P1;SDS_P2;PMS_P1;PMS_P2;Temp;Humidity;BMP_temperature;BMP_pressure;BME280_temperature;BME280_humidity;BME280_pressure;Samples;Min_cycle;Max_cycle;Signal;HPM_P1;HPM_P2
2022/03/03 00:00:00;;;;;;;7.33;6.73;;;;;17.90;100929.00;;;;2055604;28;20219;-50
2022/03/03 00:01:01;;;;;;;6.97;6.37;;;;;17.90;100929.00;;;;2055050;28;20216;-51
2022/03/03 00:02:01;;;;;;;6.70;6.10;;;;;17.90;100936.00;;;;2052856;28;20219;-51
2022/03/03 00:03:01;;;;;;;7.00;6.40;;;;;17.90;100928.00;;;;2054756;28;20310;-51
2022/03/03 00:04:02;;;;;;;6.20;5.60;;;;;17.90;100928.00;;;;2055555;28;20220;-51
2022/03/03 00:05:03;;;;;;;6.80;6.20;;;;;17.90;100927.00;;;;2055366;28;20215;-51
2022/03/03 00:06:03;;;;;;;6.97;6.38;;;;;17.80;100937.00;;;;2055528;28;20223;-51
2022/03/03 00:07:04;;;;;;;6.93;6.33;;;;;17.90;100928.00;;;;2055396;28;20219;-51
2022/03/03 00:08:04;;;;;;;6.53;6.03;;;;;17.90;100933.00;;;;2055053;28;20212;-50
2022/03/03 00:09:05;;;;;;;6.90;6.30;;;;;17.90;100934.00;;;;2056572;28;20216;-50
2022/03/03 00:10:06;;;;;;;6.70;6.10;;;;;17.90;100932.00;;;;2055681;28;20274;-51
2022/03/03 00:11:07;;;;;;;7.03;6.32;;;;;17.90;100931.00;;;;2052353;28;20208;-50
2022/03/03 00:12:07;;;;;;;6.13;5.63;;;;;17.90;100933.00;;;;2056693;28;20218;-51
2022/03/03 00:13:08;;;;;;;6.80;6.20;;;;;17.90;100915.00;;;;2055208;28;20699;-51
2022/03/03 00:14:08;;;;;;;6.13;5.63;;;;;17.90;100935.00;;;;2054447;28;20221;-51
2022/03/03 00:15:10;;;;;;;6.20;5.70;;;;;17.90;100935.00;;;;2054743;28;20723;-49
2022/03/03 00:16:10;;;;;;;6.88;6.28;;;;;17.90;100928.00;;;;2062430;28;20222;-50
2022/03/03 00:17:11;;;;;;;6.50;5.90;;;;;17.90;100932.00;;;;2062459;28;20241;-51
2022/03/03 00:18:11;;;;;;;6.90;6.30;;;;;17.90;100930.00;;;;2055072;28;20220;-50
2022/03/03 00:19:11;;;;;;;6.93;6.33;;;;;17.90;100930.00;;;;2055085;28;20766;-51
2022/03/03 00:20:12;;;;;;;7.43;6.80;;;;;17.90;100930.00;;;;2054795;28;20812;-50
2022/03/03 00:21:12;;;;;;;7.00;6.40;;;;;17.90;100924.00;;;;2054199;28;20273;-51
2022/03/03 00:22:13;;;;;;;6.87;6.27;;;;;17.90;100926.00;;;;2054954;28;20608;-51
2022/03/03 00:23:13;;;;;;;6.80;6.20;;;;;17.90;100924.00;;;;2055417;28;20574;-51
2022/03/03 00:24:13;;;;;;;6.70;6.20;;;;;17.90;100922.00;;;;2055161;28;20282;-50
2022/03/03 00:25:14;;;;;;;6.40;5.80;;;;;17.90;100925.00;;;;2055409;28;20381;-50
2022/03/03 00:26:14;;;;;;;6.57;6.07;;;;;17.90;100928.00;;;;2054733;28;20223;-50
2022/03/03 00:27:14;;;;;;;6.83;6.23;;;;;17.90;100920.00;;;;2055497;28;20227;-50
2022/03/03 00:28:15;;;;;;;6.37;5.77;;;;;17.90;100922.00;;;;2055153;28;20215;-51
2022/03/03 00:29:15;;;;;;;6.87;6.20;;;;;17.90;100921.00;;;;2055334;28;20216;-51
2022/03/03 00:30:16;;;;;;;6.33;5.73;;;;;17.90;100918.00;;;;2055000;28;20207;-50
2022/03/03 00:31:16;;;;;;;6.40;5.90;;;;;17.90;100921.00;;;;2052750;28;20370;-50
2022/03/03 00:32:16;;;;;;;7.17;6.47;;;;;17.90;100920.00;;;;2054725;28;20254;-51
2022/03/03 00:33:17;;;;;;;7.10;6.50;;;;;17.90;100919.00;;;;2059822;28;20215;-51
2022/03/03 00:34:17;;;;;;;6.60;6.00;;;;;17.90;100916.00;;;;2063349;28;20227;-51
2022/03/03 00:35:17;;;;;;;7.23;6.63;;;;;17.90;100922.00;;;;2062621;28;20305;-51
2022/03/03 00:36:18;;;;;;;6.90;6.30;;;;;17.90;100923.00;;;;2060668;28;20222;-51
2022/03/03 00:37:18;;;;;;;6.13;5.63;;;;;17.70;100922.00;;;;2062612;28;20222;-50
2022/03/03 00:38:18;;;;;;;7.07;6.37;;;;;17.90;100918.00;;;;2060307;28;20235;-50
2022/03/03 00:39:19;;;;;;;6.93;6.33;;;;;17.90;100925.00;;;;2053698;28;20366;-51
2022/03/03 00:40:19;;;;;;;6.40;5.90;;;;;17.90;100921.00;;;;2054851;28;20226;-51
2022/03/03 00:41:19;;;;;;;6.33;5.83;;;;;17.90;100916.00;;;;2054709;28;20274;-49
2022/03/03 00:42:20;;;;;;;6.23;5.77;;;;;17.90;100917.00;;;;2054737;28;20242;-51
2022/03/03 00:43:20;;;;;;;7.10;6.50;;;;;17.90;100921.00;;;;2054742;28;20274;-50
2022/03/03 00:44:20;;;;;;;7.37;6.47;;;;;17.90;100923.00;;;;2054337;28;20278;-50
2022/03/03 00:45:22;;;;;;;7.50;6.80;;;;;17.90;100919.00;;;;2054651;28;20267;-51
2022/03/03 00:46:25;;;;;;;6.45;5.90;;;;;17.90;100931.00;;;;2053879;28;20302;-51
2022/03/03 00:47:25;;;;;;;5.95;5.53;;;;;17.90;100937.00;;;;2054771;28;20230;-51
2022/03/03 00:48:25;;;;;;;6.20;5.70;;;;;17.90;100936.00;;;;2054813;28;20216;-51
2022/03/03 00:49:26;;;;;;;6.37;5.77;;;;;17.90;100935.00;;;;2054513;28;20278;-51
2022/03/03 00:50:26;;;;;;;6.70;6.10;;;;;17.90;100941.00;;;;2060274;28;20218;-51
2022/03/03 00:51:27;;;;;;;6.93;6.33;;;;;17.90;100921.00;;;;2053481;28;20750;-51
2022/03/03 00:52:27;;;;;;;7.00;6.40;;;;;17.90;100935.00;;;;2069863;28;20214;-49
2022/03/03 00:53:27;;;;;;;6.70;6.20;;;;;17.90;100933.00;;;;2070011;28;20241;-51
2022/03/03 00:54:28;;;;;;;6.00;5.50;;;;;17.90;100928.00;;;;2054671;28;20215;-51
2022/03/03 00:55:29;;;;;;;6.70;6.10;;;;;17.90;100930.00;;;;2054860;28;20216;-51
2022/03/03 00:56:29;;;;;;;6.63;6.03;;;;;17.90;100933.00;;;;2053507;28;20687;-49
2022/03/03 00:57:29;;;;;;;6.43;5.93;;;;;17.90;100931.00;;;;2054206;28;20219;-50
2022/03/03 00:58:30;;;;;;;6.67;6.07;;;;;17.90;100932.00;;;;2052446;28;20224;-50
2022/03/03 00:59:30;;;;;;;6.20;5.70;;;;;17.90;100922.00;;;;2054702;28;20590;-51
2022/03/03 01:00:31;;;;;;;6.57;6.07;;;;;17.90;100932.00;;;;2053639;28;20247;-51
2022/03/03 01:01:31;;;;;;;6.43;5.87;;;;;17.60;100934.00;;;;2053979;28;20226;-50
2022/03/03 01:02:31;;;;;;;6.00;5.50;;;;;17.90;100924.00;;;;2054491;28;20227;-51
2022/03/03 01:03:32;;;;;;;6.37;5.83;;;;;17.90;100925.00;;;;2055059;28;20215;-51
2022/03/03 01:04:32;;;;;;;6.80;6.20;;;;;17.90;100927.00;;;;2053813;28;20318;-51
2022/03/03 01:05:32;;;;;;;7.00;6.40;;;;;17.90;100934.00;;;;2054756;28;20219;-51
2022/03/03 01:06:33;;;;;;;6.10;5.60;;;;;17.90;100926.00;;;;2054451;28;20301;-51
2022/03/03 01:07:34;;;;;;;6.67;6.07;;;;;17.90;100925.00;;;;2054867;28;20211;-51
2022/03/03 01:08:34;;;;;;;5.83;5.40;;;;;17.90;100927.00;;;;2055177;28;20211;-50
2022/03/03 01:09:34;;;;;;;6.60;6.03;;;;;17.90;100936.00;;;;2054613;28;20247;-51
2022/03/03 01:10:35;;;;;;;6.30;5.80;;;;;17.90;100931.00;;;;2054497;28;20579;-51
2022/03/03 01:11:35;;;;;;;6.53;6.03;;;;;17.80;100927.00;;;;2053917;28;20274;-52
2022/03/03 01:12:35;;;;;;;6.33;5.83;;;;;17.90;100924.00;;;;2055500;28;20360;-52
2022/03/03 01:13:36;;;;;;;6.90;6.30;;;;;17.90;100931.00;;;;2054309;28;20220;-52
2022/03/03 01:14:36;;;;;;;6.90;6.30;;;;;17.90;100926.00;;;;2054198;28;20227;-52
2022/03/03 01:15:36;;;;;;;6.53;6.03;;;;;17.90;100923.00;;;;2054950;28;20278;-51
2022/03/03 01:16:37;;;;;;;6.40;5.90;;;;;17.90;100929.00;;;;2054526;28;20754;-52
2022/03/03 01:17:37;;;;;;;6.63;6.10;;;;;17.90;100926.00;;;;2054740;28;20235;-52
2022/03/03 01:18:37;;;;;;;7.07;6.47;;;;;17.80;100923.00;;;;2054764;28;20228;-52
2022/03/03 01:19:38;;;;;;;6.20;5.70;;;;;17.90;100924.00;;;;2053992;28;20227;-51
2022/03/03 01:20:38;;;;;;;6.20;5.70;;;;;17.90;100923.00;;;;2054329;28;20215;-52
2022/03/03 01:21:38;;;;;;;6.70;6.10;;;;;17.90;100928.00;;;;2054652;28;20227;-51
2022/03/03 01:22:39;;;;;;;6.00;5.50;;;;;17.90;100925.00;;;;2054706;28;20215;-51
2022/03/03 01:23:39;;;;;;;7.07;6.37;;;;;17.80;100926.00;;;;2053837;28;20347;-52
2022/03/03 01:24:39;;;;;;;6.77;6.20;;;;;17.90;100924.00;;;;2053729;28;21563;-51
2022/03/03 01:25:40;;;;;;;6.70;6.10;;;;;17.80;100917.00;;;;2053775;28;20227;-51
2022/03/03 01:26:40;;;;;;;6.93;6.33;;;;;17.90;100925.00;;;;2054598;28;21442;-52
2022/03/03 01:27:40;;;;;;;6.70;6.20;;;;;17.80;100920.00;;;;2054817;28;20242;-51
2022/03/03 01:28:41;;;;;;;6.80;6.20;;;;;17.80;100918.00;;;;2054739;28;20230;-51
2022/03/03 01:29:41;;;;;;;6.50;5.90;;;;;17.80;100914.00;;;;2054831;28;20374;-52
2022/03/03 01:30:41;;;;;;;6.23;5.73;;;;;17.80;100919.00;;;;2054301;28;20223;-52
2022/03/03 01:31:42;;;;;;;7.33;6.60;;;;;17.90;100919.00;;;;2054582;28;20211;-51
2022/03/03 01:32:42;;;;;;;6.83;6.23;;;;;17.90;100917.00;;;;2054245;28;20222;-52
2022/03/03 01:33:42;;;;;;;6.80;6.20;;;;;17.80;100913.00;;;;2053889;28;20298;-52
2022/03/03 01:34:43;;;;;;;7.00;6.33;;;;;17.90;100915.00;;;;2054777;28;20215;-52
2022/03/03 01:35:43;;;;;;;6.10;5.60;;;;;17.80;100914.00;;;;2054585;28;20226;-51
2022/03/03 01:36:44;;;;;;;6.87;6.27;;;;;17.80;100917.00;;;;2054603;28;20223;-51
2022/03/03 01:37:44;;;;;;;6.87;6.27;;;;;17.80;100909.00;;;;2053853;28;20232;-52
2022/03/03 01:38:45;;;;;;;7.10;6.50;;;;;17.90;100907.00;;;;2056329;28;20857;-52
2022/03/03 01:39:45;;;;;;;7.00;6.40;;;;;17.90;100917.00;;;;2054690;28;20699;-52
2022/03/03 01:40:45;;;;;;;7.37;6.67;;;;;17.80;100902.00;;;;2053716;28;20219;-51
2022/03/03 01:41:46;;;;;;;7.07;6.47;;;;;17.80;100905.00;;;;2050773;28;20220;-51
2022/03/03 01:42:46;;;;;;;7.30;6.67;;;;;17.80;100905.00;;;;2054046;28;20226;-52
2022/03/03 01:43:46;;;;;;;7.40;6.70;;;;;17.90;100904.00;;;;2054185;28;20646;-52
2022/03/03 01:44:47;;;;;;;6.77;6.23;;;;;17.80;100901.00;;;;2053408;28;20246;-52
2022/03/03 01:45:47;;;;;;;6.60;6.00;;;;;17.80;100902.00;;;;2054394;28;20221;-52
2022/03/03 01:46:51;;;;;;;7.00;6.40;;;;;17.80;100902.00;;;;2054469;28;20574;-51
2022/03/03 01:47:52;;;;;;;6.80;6.20;;;;;17.80;100902.00;;;;2053144;28;20714;-52
2022/03/03 01:48:52;;;;;;;6.83;6.23;;;;;17.90;100899.00;;;;2061546;28;20229;-51
2022/03/03 01:49:53;;;;;;;6.90;6.30;;;;;17.80;100899.00;;;;2069211;28;20525;-52
2022/03/03 01:50:54;;;;;;;6.93;6.35;;;;;17.80;100902.00;;;;2069941;28;20210;-51
2022/03/03 01:51:54;;;;;;;6.20;5.70;;;;;17.80;100896.00;;;;2072607;28;20740;-57
2022/03/03 01:52:55;;;;;;;7.13;6.47;;;;;17.80;100894.00;;;;2062770;28;20561;-54
2022/03/03 01:53:55;;;;;;;7.07;6.47;;;;;17.80;100893.00;;;;2062745;28;20207;-54
2022/03/03 01:54:56;;;;;;;6.97;6.33;;;;;17.80;100894.00;;;;2062662;28;20207;-54
2022/03/03 01:55:56;;;;;;;6.40;5.83;;;;;17.80;100891.00;;;;2062904;28;20222;-53
2022/03/03 01:56:56;;;;;;;7.30;6.70;;;;;17.80;100891.00;;;;2062737;28;20227;-50
2022/03/03 01:57:57;;;;;;;7.00;6.33;;;;;17.80;100899.00;;;;2062086;28;20210;-51
2022/03/03 01:58:58;;;;;;;6.47;5.88;;;;;17.80;100896.00;;;;2061771;28;20286;-52
2022/03/03 01:59:58;;;;;;;6.60;6.10;;;;;17.80;100903.00;;;;2062755;28;20594;-51
2022/03/03 02:00:59;;;;;;;6.40;5.90;;;;;17.80;100894.00;;;;2062157;28;20235;-51
2022/03/03 02:02:00;;;;;;;6.47;5.93;;;;;17.80;100895.00;;;;2062305;28;20255;-50
2022/03/03 02:03:03;;;;;;;6.40;5.80;;;;;17.80;100889.00;;;;2062474;28;20613;-52
2022/03/03 02:04:07;;;;;;;7.47;6.85;;;;;17.80;100836.00;;;;2062189;28;20217;-52
2022/03/03 02:05:08;;;;;;;6.60;6.00;;;;;17.80;100892.00;;;;2061849;28;20302;-50
2022/03/03 02:06:08;;;;;;;7.28;6.68;;;;;17.80;100894.00;;;;2062077;28;20211;-52
2022/03/03 02:07:09;;;;;;;6.87;6.27;;;;;17.80;100890.00;;;;2061744;28;20224;-52
2022/03/03 02:08:09;;;;;;;6.90;6.30;;;;;17.80;100910.00;;;;2062543;28;20329;-51
2022/03/03 02:09:10;;;;;;;7.30;6.70;;;;;17.80;100891.00;;;;2057952;28;20215;-51
2022/03/03 02:10:10;;;;;;;6.23;5.73;;;;;17.80;100892.00;;;;2054458;28;20222;-50
2022/03/03 02:11:11;;;;;;;6.87;6.27;;;;;17.80;100888.00;;;;2053492;28;20207;-51
2022/03/03 02:12:11;;;;;;;6.53;6.03;;;;;17.50;100891.00;;;;2056965;28;20249;-51
2022/03/03 02:13:11;;;;;;;7.03;6.30;;;;;17.80;100891.00;;;;2053607;28;20215;-51
2022/03/03 02:14:12;;;;;;;5.97;5.53;;;;;17.80;100894.00;;;;2052853;28;20587;-51
2022/03/03 02:15:17;;;;;;;6.90;6.27;;;;;17.80;100899.00;;;;2053927;28;20290;-51
2022/03/03 02:16:17;;;;;;;6.65;6.15;;;;;17.80;100889.00;;;;2054379;28;20227;-51
2022/03/03 02:17:18;;;;;;;6.57;5.97;;;;;17.80;100891.00;;;;2053507;28;20227;-51
2022/03/03 02:18:19;;;;;;;6.60;6.10;;;;;17.80;100894.00;;;;2053276;28;20246;-52
2022/03/03 02:19:19;;;;;;;6.90;6.33;;;;;17.80;100888.00;;;;2054063;28;20278;-51
2022/03/03 02:20:27;;;;;;;6.47;5.90;;;;;17.80;100885.00;;;;2053220;28;20706;-51
2022/03/03 02:21:30;;;;;;;6.50;6.00;;;;;17.80;100879.00;;;;2054065;28;21148;-52
2022/03/03 02:22:33;;;;;;;6.75;6.15;;;;;17.80;100885.00;;;;2059869;28;20308;-51
2022/03/03 02:23:34;;;;;;;6.95;6.35;;;;;17.80;100885.00;;;;2068758;28;20652;-51
2022/03/03 02:24:35;;;;;;;7.20;6.57;;;;;17.80;100884.00;;;;2053779;28;20219;-51
2022/03/03 02:25:35;;;;;;;6.85;6.25;;;;;17.80;100886.00;;;;2054142;28;20238;-52
2022/03/03 02:26:39;;;;;;;6.33;5.80;;;;;17.80;100882.00;;;;2054097;28;20295;-51
2022/03/03 02:27:40;;;;;;;6.55;6.00;;;;;17.80;100879.00;;;;2058284;28;20579;-51
2022/03/03 02:28:40;;;;;;;6.80;6.20;;;;;17.80;100886.00;;;;2061478;28;20309;-50
2022/03/03 02:29:40;;;;;;;6.03;5.43;;;;;17.80;100870.00;;;;2061385;28;20234;-51
2022/03/03 02:30:41;;;;;;;6.37;5.87;;;;;17.80;100883.00;;;;2061552;28;20290;-51
2022/03/03 02:31:41;;;;;;;6.33;5.73;;;;;17.80;100872.00;;;;2062020;28;20218;-51
2022/03/03 02:32:42;;;;;;;6.30;5.73;;;;;17.80;100872.00;;;;2062474;28;20215;-51
2022/03/03 02:33:42;;;;;;;6.40;5.90;;;;;17.80;100874.00;;;;2061786;28;20722;-50
2022/03/03 02:34:47;;;;;;;6.97;6.40;;;;;17.80;100870.00;;;;2061872;28;20218;-52
2022/03/03 02:35:47;;;;;;;7.28;6.68;;;;;17.80;100870.00;;;;2069258;28;20218;-52
2022/03/03 02:36:48;;;;;;;6.70;6.10;;;;;17.80;100868.00;;;;2069488;28;20299;-50
2022/03/03 02:37:48;;;;;;;7.00;6.43;;;;;17.80;100866.00;;;;2055050;28;20207;-52
2022/03/03 02:38:50;;;;;;;6.80;6.20;;;;;17.80;100865.00;;;;2054754;28;20328;-52
2022/03/03 02:39:50;;;;;;;7.60;6.90;;;;;17.80;100864.00;;;;2053956;28;20922;-50
2022/03/03 02:40:51;;;;;;;6.57;6.00;;;;;17.80;100865.00;;;;2053574;28;20281;-50
2022/03/03 02:41:51;;;;;;;6.80;6.30;;;;;17.80;100867.00;;;;2054530;28;20223;-51
2022/03/03 02:42:53;;;;;;;6.50;5.90;;;;;17.80;100872.00;;;;2054568;28;20224;-51
2022/03/03 02:43:53;;;;;;;6.60;6.05;;;;;17.80;100864.00;;;;2054486;28;20211;-51
2022/03/03 02:44:54;;;;;;;7.20;6.60;;;;;17.80;100858.00;;;;2054497;28;20631;-52
2022/03/03 02:45:54;;;;;;;6.93;6.33;;;;;17.80;100864.00;;;;2054187;28;20223;-52
2022/03/03 02:46:54;;;;;;;6.30;5.80;;;;;17.80;100861.00;;;;2054631;28;20611;-52
2022/03/03 02:47:55;;;;;;;6.77;6.20;;;;;17.80;100861.00;;;;2059202;28;20649;-52
2022/03/03 02:48:56;;;;;;;6.30;5.80;;;;;17.80;100852.00;;;;2062582;28;20211;-50
2022/03/03 02:49:56;;;;;;;6.40;5.90;;;;;17.80;100857.00;;;;2064008;28;20389;-52
2022/03/03 02:50:57;;;;;;;7.23;6.63;;;;;17.80;100858.00;;;;2063469;28;20458;-52
2022/03/03 02:51:58;;;;;;;7.47;6.87;;;;;17.80;100852.00;;;;2055828;28;20211;-51
2022/03/03 02:53:01;;;;;;;6.37;5.77;;;;;17.80;100858.00;;;;2055275;28;20447;-52
2022/03/03 02:54:02;;;;;;;6.07;5.57;;;;;17.80;100861.00;;;;2055306;28;20463;-52
2022/03/03 02:55:04;;;;;;;6.43;5.93;;;;;17.80;100863.00;;;;2055886;28;20219;-51
2022/03/03 02:56:04;;;;;;;6.95;6.35;;;;;17.80;100855.00;;;;2055864;28;20632;-52
2022/03/03 02:58:23;;;;;;;6.50;5.90;;;;;17.80;100857.00;;;;2061559;28;20215;-51
2022/03/03 02:59:25;;;;;;;6.50;5.70;;;;;17.80;100856.00;;;;2062523;28;20219;-51
2022/03/03 03:00:28;;;;;;;5.90;5.40;;;;;17.80;100854.00;;;;2063255;28;21049;-51
2022/03/03 03:01:28;;;;;;;5.85;5.45;;;;;17.80;100851.00;;;;2063778;28;20214;-52
2022/03/03 03:02:28;;;;;;;6.90;6.30;;;;;17.80;100848.00;;;;2064030;28;20644;-51
2022/03/03 03:03:28;;;;;;;7.00;6.40;;;;;17.80;100846.00;;;;2064062;28;20214;-52
2022/03/03 03:04:29;;;;;;;7.20;6.57;;;;;17.80;100843.00;;;;2056374;28;20226;-52
2022/03/03 03:05:29;;;;;;;7.43;6.73;;;;;17.80;100832.00;;;;2056004;28;20223;-52
2022/03/03 03:06:29;;;;;;;6.67;6.07;;;;;17.80;100836.00;;;;2055846;28;20346;-52
2022/03/03 03:07:30;;;;;;;7.27;6.57;;;;;17.80;100844.00;;;;2056127;28;20231;-52
2022/03/03 03:08:30;;;;;;;7.17;6.57;;;;;17.80;100848.00;;;;2058019;28;20223;-51
2022/03/03 03:09:31;;;;;;;7.13;6.53;;;;;17.80;100843.00;;;;2055842;28;20227;-51
2022/03/03 03:10:31;;;;;;;7.27;6.67;;;;;17.80;100838.00;;;;2054645;28;20223;-50
2022/03/03 03:11:32;;;;;;;6.33;5.80;;;;;17.80;100844.00;;;;2063263;28;20219;-52
2022/03/03 03:12:33;;;;;;;6.30;5.80;;;;;17.80;100844.00;;;;2067613;28;20218;-50
2022/03/03 03:13:33;;;;;;;6.63;6.13;;;;;17.80;100832.00;;;;2062985;28;20325;-51
2022/03/03 03:14:33;;;;;;;6.00;5.50;;;;;17.80;100845.00;;;;2063165;28;20215;-52
2022/03/03 03:15:34;;;;;;;6.43;5.93;;;;;17.80;100835.00;;;;2063431;28;20215;-52
2022/03/03 03:16:34;;;;;;;6.53;6.00;;;;;17.80;100854.00;;;;2063437;28;20242;-52
2022/03/03 03:17:35;;;;;;;6.30;5.80;;;;;17.80;100837.00;;;;2062827;28;20706;-51
2022/03/03 03:18:35;;;;;;;7.10;6.50;;;;;17.80;100839.00;;;;2064027;28;20215;-52
2022/03/03 03:19:35;;;;;;;6.30;5.70;;;;;17.80;100833.00;;;;2064005;28;20293;-52
2022/03/03 03:20:37;;;;;;;6.60;6.10;;;;;17.80;100832.00;;;;2063396;28;20639;-52
2022/03/03 03:21:37;;;;;;;6.88;6.28;;;;;17.80;100825.00;;;;2055999;28;20213;-52
2022/03/03 03:22:38;;;;;;;6.30;5.80;;;;;17.80;100837.00;;;;2055609;28;20629;-54
2022/03/03 03:23:38;;;;;;;6.27;5.70;;;;;17.70;100830.00;;;;2055794;28;20779;-53
2022/03/03 03:24:39;;;;;;;7.60;6.90;;;;;17.80;100835.00;;;;2055577;28;20704;-53
2022/03/03 03:25:43;;;;;;;6.60;6.00;;;;;17.80;100832.00;;;;2055665;28;20708;-51
2022/03/03 03:26:43;;;;;;;6.65;6.05;;;;;17.80;100834.00;;;;2055871;28;20246;-51
2022/03/03 03:27:44;;;;;;;7.07;6.47;;;;;17.80;100838.00;;;;2055918;28;20230;-52
2022/03/03 03:28:44;;;;;;;6.60;6.10;;;;;17.80;100834.00;;;;2055685;28;20266;-51
2022/03/03 03:29:45;;;;;;;6.07;5.57;;;;;17.80;100837.00;;;;2055730;28;20366;-52
2022/03/03 03:30:45;;;;;;;7.30;6.70;;;;;17.70;100839.00;;;;2055036;28;20299;-52
2022/03/03 03:31:46;;;;;;;6.80;6.20;;;;;17.80;100833.00;;;;2055854;28;20625;-51
2022/03/03 03:32:46;;;;;;;6.67;6.07;;;;;17.70;100830.00;;;;2055809;28;20217;-52
2022/03/03 03:33:46;;;;;;;6.67;6.13;;;;;17.70;100834.00;;;;2055836;28;20307;-52
2022/03/03 03:34:47;;;;;;;6.67;6.07;;;;;17.70;100833.00;;;;2055728;28;20216;-52
2022/03/03 03:35:47;;;;;;;7.00;6.30;;;;;17.70;100833.00;;;;2055703;28;20219;-51
2022/03/03 03:36:48;;;;;;;6.27;5.77;;;;;17.70;100835.00;;;;2055762;28;20207;-51
2022/03/03 03:37:48;;;;;;;6.57;6.03;;;;;17.70;100829.00;;;;2056159;28;20211;-50
2022/03/03 03:38:48;;;;;;;6.63;6.03;;;;;17.70;100839.00;;;;2055614;28;20211;-52
2022/03/03 03:39:49;;;;;;;5.97;5.47;;;;;17.70;100844.00;;;;2055401;28;20631;-52
2022/03/03 03:40:49;;;;;;;6.93;6.33;;;;;17.80;100835.00;;;;2054957;28;20722;-52
2022/03/03 03:41:50;;;;;;;6.57;5.97;;;;;17.70;100758.00;;;;2054960;28;20218;-52
2022/03/03 03:42:50;;;;;;;5.93;5.43;;;;;17.70;100833.00;;;;2055119;28;20723;-51
2022/03/03 03:43:50;;;;;;;6.13;5.63;;;;;17.70;100835.00;;;;2055603;28;20222;-50
2022/03/03 03:44:51;;;;;;;6.80;6.20;;;;;17.70;100827.00;;;;2055685;28;20218;-51
2022/03/03 03:45:51;;;;;;;6.90;6.30;;;;;17.70;100825.00;;;;2055695;28;20208;-51
2022/03/03 03:46:51;;;;;;;6.97;6.37;;;;;17.70;100827.00;;;;2055669;28;20203;-51
2022/03/03 03:47:52;;;;;;;6.80;6.20;;;;;17.70;100825.00;;;;2055816;28;20215;-51
2022/03/03 03:48:52;;;;;;;6.37;5.83;;;;;17.80;100832.00;;;;2055707;28;20215;-52
2022/03/03 03:49:53;;;;;;;7.20;6.50;;;;;17.80;100824.00;;;;2055042;28;20727;-51
2022/03/03 03:50:53;;;;;;;6.80;6.20;;;;;17.70;100830.00;;;;2055067;28;20207;-52
2022/03/03 03:51:53;;;;;;;6.17;5.67;;;;;17.80;100823.00;;;;2055774;28;20219;-52
2022/03/03 03:52:54;;;;;;;6.47;5.97;;;;;17.70;100823.00;;;;2055342;28;20235;-52
2022/03/03 03:53:54;;;;;;;7.30;6.70;;;;;17.70;100817.00;;;;2055520;28;20216;-52
2022/03/03 03:54:55;;;;;;;6.57;6.03;;;;;17.70;100820.00;;;;2049096;28;20307;-51
2022/03/03 03:55:55;;;;;;;7.10;6.50;;;;;17.70;100823.00;;;;2070918;28;20225;-52
2022/03/03 03:56:56;;;;;;;5.63;5.17;;;;;17.70;100816.00;;;;2067911;28;21040;-51
2022/03/03 03:57:56;;;;;;;6.47;5.97;;;;;17.70;100820.00;;;;2055568;28;20216;-52
2022/03/03 03:58:56;;;;;;;7.60;7.00;;;;;17.70;100814.00;;;;2055529;28;20222;-52
2022/03/03 03:59:57;;;;;;;7.03;6.43;;;;;17.70;100810.00;;;;2055572;28;20298;-51
2022/03/03 04:00:57;;;;;;;6.97;6.30;;;;;17.70;100806.00;;;;2053958;28;20211;-51
2022/03/03 04:01:58;;;;;;;6.93;6.33;;;;;17.70;100804.00;;;;2054732;28;20211;-52
2022/03/03 04:02:58;;;;;;;6.90;6.30;;;;;17.70;100811.00;;;;2054880;28;20314;-52
2022/03/03 04:03:58;;;;;;;6.67;6.10;;;;;17.80;100809.00;;;;2059875;28;20585;-52
2022/03/03 04:04:59;;;;;;;7.00;6.40;;;;;17.70;100805.00;;;;2063396;28;20632;-51
2022/03/03 04:05:59;;;;;;;6.73;6.13;;;;;17.70;100799.00;;;;2063467;28;20627;-50
2022/03/03 04:06:59;;;;;;;6.50;5.90;;;;;17.70;100806.00;;;;2063358;28;20621;-51
2022/03/03 04:08:00;;;;;;;6.13;5.63;;;;;17.70;100805.00;;;;2063477;28;20211;-52
2022/03/03 04:09:00;;;;;;;7.20;6.60;;;;;17.70;100807.00;;;;2058278;28;20221;-51
2022/03/03 04:10:01;;;;;;;6.30;5.70;;;;;17.80;100810.00;;;;2055424;28;20219;-50
2022/03/03 04:11:02;;;;;;;6.70;6.10;;;;;17.50;100811.00;;;;2054197;28;20246;-51
2022/03/03 04:12:02;;;;;;;6.30;5.80;;;;;17.70;100811.00;;;;2056149;28;20297;-52
2022/03/03 04:13:03;;;;;;;6.97;6.37;;;;;17.70;100804.00;;;;2055422;28;20999;-52
2022/03/03 04:14:03;;;;;;;6.37;5.83;;;;;17.70;100806.00;;;;2055402;28;20204;-52
2022/03/03 04:15:04;;;;;;;6.67;6.07;;;;;17.70;100800.00;;;;2055364;28;20216;-51
2022/03/03 04:16:04;;;;;;;7.13;6.53;;;;;17.70;100799.00;;;;2055210;28;20578;-52
2022/03/03 04:17:05;;;;;;;6.40;5.90;;;;;17.70;100798.00;;;;2055052;28;20219;-52
2022/03/03 04:18:05;;;;;;;6.37;5.77;;;;;17.70;100798.00;;;;2055445;28;22373;-52
2022/03/03 04:19:05;;;;;;;7.37;6.67;;;;;17.70;100797.00;;;;2055619;28;20239;-52
2022/03/03 04:20:06;;;;;;;7.30;6.70;;;;;17.70;100800.00;;;;2055448;28;20238;-52
2022/03/03 04:21:06;;;;;;;6.73;6.13;;;;;17.70;100797.00;;;;2054654;28;20219;-52
2022/03/03 04:22:07;;;;;;;7.37;6.73;;;;;17.70;100797.00;;;;2055399;28;20688;-51
2022/03/03 04:23:07;;;;;;;6.73;6.13;;;;;17.70;100797.00;;;;2055357;28;20586;-51
2022/03/03 04:24:07;;;;;;;6.77;6.17;;;;;17.70;100804.00;;;;2055110;28;20974;-52
2022/03/03 04:25:10;;;;;;;6.37;5.83;;;;;17.70;100806.00;;;;2055231;28;20660;-51
2022/03/03 04:26:10;;;;;;;6.43;5.93;;;;;17.70;100797.00;;;;2055428;28;20223;-50
2022/03/03 04:27:10;;;;;;;6.70;6.20;;;;;17.70;100793.00;;;;2055156;28;20330;-52
2022/03/03 04:28:11;;;;;;;6.70;6.10;;;;;17.70;100791.00;;;;2062395;28;20214;-51
2022/03/03 04:29:11;;;;;;;6.23;5.70;;;;;17.70;100792.00;;;;2058016;28;20306;-51
2022/03/03 04:30:12;;;;;;;6.43;5.83;;;;;17.70;100798.00;;;;2063199;28;20321;-52
2022/03/03 04:31:12;;;;;;;5.90;5.40;;;;;17.70;100789.00;;;;2062620;28;20305;-51
2022/03/03 04:32:12;;;;;;;7.10;6.57;;;;;17.70;100788.00;;;;2063199;28;20222;-51
2022/03/03 04:33:13;;;;;;;6.63;6.10;;;;;17.70;100791.00;;;;2063224;28;20241;-51
2022/03/03 04:34:14;;;;;;;6.30;5.80;;;;;17.70;100787.00;;;;2063303;28;20223;-52
2022/03/03 04:35:14;;;;;;;6.57;5.97;;;;;17.70;100787.00;;;;2062565;28;20604;-51
2022/03/03 04:36:14;;;;;;;6.37;5.87;;;;;17.70;100791.00;;;;2062606;28;20581;-52
2022/03/03 04:37:15;;;;;;;6.30;5.70;;;;;17.70;100788.00;;;;2062642;28;20627;-51
2022/03/03 04:38:15;;;;;;;6.23;5.73;;;;;17.70;100790.00;;;;2061427;28;20581;-51
2022/03/03 04:39:16;;;;;;;6.27;5.77;;;;;17.70;100784.00;;;;2055014;28;20215;-51
2022/03/03 04:40:16;;;;;;;7.30;6.70;;;;;17.70;100784.00;;;;2054979;28;20219;-51
2022/03/03 04:41:17;;;;;;;6.67;6.07;;;;;17.70;100783.00;;;;2054107;28;20214;-52
2022/03/03 04:42:18;;;;;;;6.40;5.90;;;;;17.70;100786.00;;;;2054520;28;20259;-51
2022/03/03 04:43:18;;;;;;;6.10;5.60;;;;;17.70;100783.00;;;;2054988;28;20223;-52
2022/03/03 04:44:18;;;;;;;6.80;6.20;;;;;17.70;100774.00;;;;2055381;28;20230;-52
2022/03/03 04:45:19;;;;;;;7.20;6.57;;;;;17.70;100776.00;;;;2055050;28;20700;-52
2022/03/03 04:46:19;;;;;;;6.90;6.30;;;;;17.70;100778.00;;;;2055229;28;20298;-51
2022/03/03 04:47:19;;;;;;;7.17;6.57;;;;;17.70;100781.00;;;;2055241;28;20228;-51
2022/03/03 04:48:20;;;;;;;7.20;6.70;;;;;17.70;100778.00;;;;2054872;28;20807;-51
2022/03/03 04:49:20;;;;;;;6.83;6.23;;;;;17.70;100782.00;;;;2054675;28;20571;-53
2022/03/03 04:50:20;;;;;;;6.70;6.20;;;;;17.70;100779.00;;;;2053769;28;20512;-55
2022/03/03 04:51:21;;;;;;;6.57;5.97;;;;;17.70;100770.00;;;;2054746;28;20243;-54
2022/03/03 04:52:21;;;;;;;6.17;5.57;;;;;17.70;100780.00;;;;2055134;28;20250;-54
2022/03/03 04:53:21;;;;;;;7.00;6.40;;;;;17.70;100787.00;;;;2054951;28;20215;-51
2022/03/03 04:54:22;;;;;;;6.33;5.83;;;;;17.70;100778.00;;;;2055016;28;20219;-50
2022/03/03 04:55:22;;;;;;;7.03;6.43;;;;;17.70;100780.00;;;;2055075;28;20223;-51
2022/03/03 04:56:22;;;;;;;6.30;5.80;;;;;17.70;100773.00;;;;2055045;28;20223;-52
2022/03/03 04:57:23;;;;;;;6.20;5.70;;;;;17.70;100777.00;;;;2055090;28;20295;-51
2022/03/03 04:58:24;;;;;;;6.73;5.97;;;;;17.70;100761.00;;;;2054791;28;20274;-52
2022/03/03 04:59:24;;;;;;;5.97;5.47;;;;;17.70;100779.00;;;;2054562;28;20243;-51
2022/03/03 05:00:24;;;;;;;6.27;5.77;;;;;17.70;100777.00;;;;2053939;28;20306;-50